Time;durP1;ratioP1;P1;durP2;ratioP2;P2;SDS_P1;SDS_P2;PMS_P1;PMS_P2;Temp;Humidity;BMP_temperature;BMP_pressure;BME280_temperature;BME280_humidity;BME280_pressure;Samples;Min_cycle;Max_cycle;Signal;HPM_P1;HPM_P2
2022/12/19 00:01:37;;;;;;;42.58;22.33;;;;;;;0.99;100.00;101779.72;5078136;28;20061;-66
2022/12/19 00:04:06;;;;;;;40.70;20.92;;;;;;;1.03;100.00;101786.00;5077945;28;20063;-66
2022/12/19 00:06:31;;;;;;;58.13;29.27;;;;;;;1.11;100.00;101769.16;5096185;28;20465;-66
2022/12/19 00:08:59;;;;;;;41.67;19.92;;;;;;;1.13;100.00;101771.09;5096291;28;20077;-66
2022/12/19 00:11:26;;;;;;;48.30;22.98;;;;;;;1.12;100.00;101763.19;5077964;28;20069;-66
2022/12/19 00:13:51;;;;;;;50.20;24.98;;;;;;;1.11;100.00;101750.94;5096251;28;20028;-66
2022/12/19 00:16:19;;;;;;;41.10;19.55;;;;;;;1.13;100.00;101758.06;5096257;28;20027;-66
2022/12/19 00:18:46;;;;;;;37.80;20.83;;;;;;;1.17;100.00;101753.97;5096095;28;20028;-66
2022/12/19 00:21:14;;;;;;;47.88;23.75;;;;;;;1.16;100.00;101749.56;5095995;28;20109;-66
2022/12/19 00:23:40;;;;;;;52.70;26.25;;;;;;;1.16;100.00;101744.34;5096009;28;20020;-66
2022/12/19 00:26:20;;;;;;;42.85;20.75;;;;;;;1.18;100.00;101750.53;5096004;28;20024;-66
2022/12/19 00:28:48;;;;;;;43.50;22.30;;;;;;;1.16;100.00;101750.47;5096076;28;20024;-65
2022/12/19 00:31:15;;;;;;;46.65;24.67;;;;;;;1.10;100.00;101744.84;5095882;28;20111;-66
2022/12/19 00:33:41;;;;;;;49.75;23.05;;;;;;;1.11;100.00;101728.41;5077287;28;20032;-66
2022/12/19 00:36:10;;;;;;;50.80;26.05;;;;;;;1.14;100.00;101733.81;5095869;28;20030;-66
2022/12/19 00:38:36;;;;;;;54.55;24.88;;;;;;;1.16;100.00;101718.31;5077706;28;20028;-66
2022/12/19 00:41:22;;;;;;;53.55;24.17;;;;;;;1.19;100.00;101729.81;5095575;28;20024;-66
2022/12/19 00:44:01;;;;;;;44.30;21.40;;;;;;;1.19;100.00;101734.13;5095430;28;20040;-66
2022/12/19 00:46:27;;;;;;;50.05;23.05;;;;;;;1.18;100.00;101720.19;5095713;28;20522;-66
2022/12/19 00:48:54;;;;;;;42.88;21.65;;;;;;;1.20;100.00;101718.63;5095585;28;20020;-65
2022/12/19 00:51:22;;;;;;;42.03;19.20;;;;;;;1.22;100.00;101714.38;5095540;28;20073;-66
2022/12/19 00:53:50;;;;;;;47.80;25.40;;;;;;;1.23;100.00;101703.16;5095522;28;20028;-65
2022/12/19 00:56:19;;;;;;;50.92;25.67;;;;;;;1.29;100.00;101709.56;5077515;28;20103;-65
2022/12/19 00:58:44;;;;;;;46.67;21.17;;;;;;;1.31;100.00;101705.34;5095425;28;20024;-66
2022/12/19 01:01:22;;;;;;;38.90;18.90;;;;;;;1.36;100.00;101702.22;5077016;28;20489;-66
2022/12/19 01:03:48;;;;;;;48.63;22.45;;;;;;;1.38;100.00;101686.72;5095245;28;20103;-66
2022/12/19 01:06:14;;;;;;;45.67;24.05;;;;;;;1.44;100.00;101684.47;5095320;28;20078;-66
2022/12/19 01:08:40;;;;;;;51.30;27.73;;;;;;;1.46;100.00;101694.19;5076886;28;20032;-66
2022/12/19 01:11:06;;;;;;;41.85;21.25;;;;;;;1.49;100.00;101702.16;5094071;28;20024;-67
2022/12/19 01:13:33;;;;;;;44.83;19.88;;;;;;;1.55;100.00;101688.63;5095210;28;20402;-67
2022/12/19 01:16:10;;;;;;;45.13;20.67;;;;;;;1.53;100.00;101692.81;5095197;28;20107;-65
2022/12/19 01:18:35;;;;;;;47.63;22.80;;;;;;;1.53;100.00;101690.22;5076869;28;20473;-65
2022/12/19 01:21:04;;;;;;;42.58;19.45;;;;;;;1.53;100.00;101685.00;5095240;28;20076;-66
2022/12/19 01:23:30;;;;;;;44.95;21.02;;;;;;;1.54;100.00;101692.00;5094995;28;20024;-66
2022/12/19 01:25:56;;;;;;;44.15;23.67;;;;;;;1.55;100.00;101687.72;5076703;28;20024;-66
2022/12/19 01:28:23;;;;;;;46.00;23.25;;;;;;;1.50;100.00;101672.72;5094787;28;20099;-66
2022/12/19 01:30:49;;;;;;;42.17;22.15;;;;;;;1.55;100.00;101665.19;5094775;28;20039;-66
2022/12/19 01:33:16;;;;;;;42.30;20.08;;;;;;;1.54;100.00;101662.47;5094611;28;20032;-66
2022/12/19 01:35:42;;;;;;;42.72;21.30;;;;;;;1.55;100.00;101659.09;5094648;28;20030;-66
2022/12/19 01:38:15;;;;;;;47.80;25.15;;;;;;;1.51;100.00;101665.81;5094589;28;20035;-66
2022/12/19 01:40:50;;;;;;;40.03;19.33;;;;;;;1.47;100.00;101675.13;5094720;28;20078;-67
2022/12/19 01:43:16;;;;;;;42.42;21.75;;;;;;;1.53;100.00;101661.56;5094384;28;20055;-66
2022/12/19 01:45:42;;;;;;;39.28;19.30;;;;;;;1.54;100.00;101668.56;5094691;28;20032;-66
2022/12/19 01:48:29;;;;;;;44.75;21.05;;;;;;;1.56;100.00;101666.09;5094367;28;20039;-66
2022/12/19 01:51:01;;;;;;;38.22;18.02;;;;;;;1.53;100.00;101663.28;5094421;28;20085;-67
2022/12/19 01:53:30;;;;;;;45.45;20.42;;;;;;;1.56;100.00;101663.47;5094238;28;20028;-66
2022/12/19 01:55:56;;;;;;;47.58;24.88;;;;;;;1.61;100.00;101662.94;5094327;28;20525;-66
2022/12/19 01:58:22;;;;;;;47.13;24.00;;;;;;;1.65;100.00;101664.03;5094272;28;20048;-66
2022/12/19 02:00:48;;;;;;;47.67;21.25;;;;;;;1.61;100.00;101654.22;5094382;28;20024;-66
2022/12/19 02:03:21;;;;;;;42.38;19.10;;;;;;;1.62;100.00;101667.31;5093753;28;20024;-66
2022/12/19 02:05:48;;;;;;;42.28;19.10;;;;;;;1.64;100.00;101650.09;5094038;28;20127;-66
2022/12/19 02:08:13;;;;;;;39.33;19.67;;;;;;;1.67;100.00;101660.72;5094219;28;20505;-67
2022/12/19 02:10:39;;;;;;;44.83;21.20;;;;;;;1.64;100.00;101655.31;5093936;28;20028;-67
2022/12/19 02:13:05;;;;;;;42.92;20.88;;;;;;;1.67;100.00;101651.97;5075962;28;20570;-67
2022/12/19 02:15:38;;;;;;;46.45;23.08;;;;;;;1.66;100.00;101643.25;5093815;28;20047;-67
2022/12/19 02:18:25;;;;;;;45.03;20.98;;;;;;;1.68;100.00;101635.56;5093967;28;20036;-66
2022/12/19 02:20:50;;;;;;;30.60;14.50;;;;;;;1.71;100.00;101628.81;5093760;28;20028;-67
2022/12/19 02:23:28;;;;;;;39.30;17.95;;;;;;;1.68;100.00;101625.13;5093496;28;20027;-66
2022/12/19 02:26:08;;;;;;;43.67;20.33;;;;;;;1.71;100.00;101628.81;5094075;28;20024;-67
2022/12/19 02:29:11;;;;;;;39.92;18.35;;;;;;;1.73;100.00;101619.38;5093659;28;20469;-66
2022/12/19 02:31:51;;;;;;;46.22;22.33;;;;;;;1.72;100.00;101612.38;5093424;28;20028;-67
2022/12/19 02:34:21;;;;;;;45.67;19.38;;;;;;;1.76;100.00;101610.84;5093390;28;20035;-67
2022/12/19 02:36:54;;;;;;;41.13;20.15;;;;;;;1.77;100.00;101609.16;5093173;28;20024;-67
2022/12/19 02:39:44;;;;;;;42.13;18.52;;;;;;;1.81;100.00;101618.94;5093485;28;20051;-67
2022/12/19 02:42:14;;;;;;;44.45;20.98;;;;;;;1.84;100.00;101604.38;5075292;28;20089;-67
2022/12/19 02:44:44;;;;;;;48.88;23.90;;;;;;;1.86;100.00;101594.03;5093210;28;20048;-68
2022/12/19 02:47:11;;;;;;;39.90;18.02;;;;;;;1.90;100.00;101593.41;5093269;28;20366;-67
2022/12/19 02:49:37;;;;;;;40.35;18.48;;;;;;;1.97;100.00;101595.53;5093484;28;20036;-67
2022/12/19 02:52:12;;;;;;;46.35;21.38;;;;;;;2.00;100.00;101583.56;5093235;28;20039;-67
2022/12/19 02:54:38;;;;;;;49.78;22.73;;;;;;;2.06;100.00;101572.63;5093485;28;20031;-67
2022/12/19 02:57:20;;;;;;;47.80;20.85;;;;;;;2.08;100.00;101577.91;5093271;28;20028;-67
2022/12/19 03:00:16;;;;;;;50.10;23.15;;;;;;;2.13;100.00;101568.63;5093219;28;20222;-67
2022/12/19 03:03:09;;;;;;;53.78;24.65;;;;;;;2.16;100.00;101567.09;5074117;28;20066;-67
2022/12/19 03:05:37;;;;;;;43.63;21.55;;;;;;;2.20;100.00;101565.56;5093204;28;20031;-67
2022/12/19 03:08:03;;;;;;;49.45;21.52;;;;;;;2.23;100.00;101570.97;5093029;28;20028;-67
2022/12/19 03:10:31;;;;;;;50.95;22.40;;;;;;;2.26;100.00;101565.91;5093043;28;20023;-67
2022/12/19 03:13:01;;;;;;;46.08;20.25;;;;;;;2.28;100.00;101564.28;5092954;28;20028;-67
2022/12/19 03:15:27;;;;;;;47.95;20.27;;;;;;;2.33;100.00;101570.66;5093002;28;20024;-68
2022/12/19 03:18:00;;;;;;;37.20;18.17;;;;;;;2.36;100.00;101563.00;5074906;28;20028;-67
2022/12/19 03:20:38;;;;;;;44.58;20.33;;;;;;;2.37;100.00;101570.00;5092793;28;20036;-67
2022/12/19 03:23:04;;;;;;;36.38;17.60;;;;;;;2.43;100.00;101569.44;5092884;28;20032;-67
2022/12/19 03:25:29;;;;;;;34.55;17.35;;;;;;;2.45;100.00;101565.22;5092823;28;20455;-67
2022/12/19 03:28:02;;;;;;;39.25;19.05;;;;;;;2.50;100.00;101564.66;5075287;28;20350;-67
2022/12/19 03:30:31;;;;;;;39.65;18.55;;;;;;;2.52;100.00;101556.91;5074716;28;20445;-67
2022/12/19 03:32:56;;;;;;;42.03;18.90;;;;;;;2.56;100.00;101557.97;5074293;28;20035;-67
2022/12/19 03:35:27;;;;;;;44.05;19.10;;;;;;;2.62;100.00;101568.75;5096319;28;20456;-67
2022/12/19 03:37:56;;;;;;;46.60;21.20;;;;;;;2.66;100.00;101549.84;5097338;28;20420;-67
2022/12/19 03:40:25;;;;;;;43.47;19.60;;;;;;;2.69;100.00;101557.81;5096872;28;20031;-67
2022/12/19 03:43:08;;;;;;;47.92;22.58;;;;;;;2.76;100.00;101554.72;5096616;28;20503;-67
2022/12/19 03:46:05;;;;;;;36.92;17.00;;;;;;;2.83;100.00;101550.75;5096678;28;20024;-67
2022/12/19 03:48:46;;;;;;;42.97;20.00;;;;;;;2.87;100.00;101550.06;5096817;28;20031;-67
2022/12/19 03:51:28;;;;;;;35.05;15.98;;;;;;;2.96;100.00;101553.19;5096645;28;20028;-67
2022/12/19 03:54:05;;;;;;;38.00;17.00;;;;;;;3.01;100.00;101549.09;5096603;28;20032;-67
2022/12/19 03:56:44;;;;;;;43.05;18.27;;;;;;;3.07;100.00;101548.50;5097027;28;20115;-67
2022/12/19 03:59:30;;;;;;;44.85;19.48;;;;;;;3.14;100.00;101534.97;5096631;28;20062;-67
2022/12/19 04:01:56;;;;;;;36.97;17.23;;;;;;;3.21;100.00;101534.44;5096513;28;20500;-66
2022/12/19 04:04:24;;;;;;;42.80;18.35;;;;;;;3.30;100.00;101542.78;5096284;28;20048;-66
2022/12/19 04:06:51;;;;;;;37.00;16.63;;;;;;;3.41;100.00;101535.47;5096247;28;20485;-66
2022/12/19 04:09:20;;;;;;;39.45;17.88;;;;;;;3.49;100.00;101529.81;5096431;28;20021;-66
2022/12/19 04:11:52;;;;;;;39.22;17.67;;;;;;;3.63;100.00;101546.19;5096120;28;20491;-67
2022/12/19 04:14:29;;;;;;;32.47;15.52;;;;;;;3.71;100.00;101531.78;5096348;28;20469;-67
2022/12/19 04:17:03;;;;;;;36.58;15.82;;;;;;;3.78;100.00;101533.00;5096352;28;20032;-67
2022/12/19 04:19:35;;;;;;;36.45;15.30;;;;;;;3.92;100.00;101531.94;5096264;28;20149;-66
2022/12/19 04:22:15;;;;;;;40.85;17.40;;;;;;;4.00;100.00;101521.84;5077962;28;20031;-66
2022/12/19 04:24:43;;;;;;;38.40;17.15;;;;;;;4.06;100.00;101503.81;5096171;28;20067;-66
2022/12/19 04:27:09;;;;;;;39.92;16.77;;;;;;;4.22;100.00;101531.63;5077838;28;20016;-66
2022/12/19 04:29:36;;;;;;;38.45;16.83;;;;;;;4.28;100.00;101529.28;5096254;28;20068;-66
2022/12/19 04:32:05;;;;;;;30.02;13.13;;;;;;;4.37;100.00;101516.66;5096014;28;20028;-66
2022/12/19 04:34:30;;;;;;;38.20;16.98;;;;;;;4.45;100.00;101511.75;5095898;28;20020;-68
2022/12/19 04:36:56;;;;;;;35.28;15.60;;;;;;;4.52;100.00;101514.72;5095870;28;20036;-66
2022/12/19 04:39:21;;;;;;;35.20;16.60;;;;;;;4.59;100.00;101505.44;5060950;28;20020;-66
2022/12/19 04:41:47;;;;;;;30.65;14.10;;;;;;;4.68;100.00;101512.81;5095549;28;20051;-66
2022/12/19 04:44:12;;;;;;;33.22;15.40;;;;;;;4.66;100.00;101506.59;5095485;28;20512;-66
2022/12/19 04:46:37;;;;;;;35.67;15.88;;;;;;;4.76;100.00;101511.44;5094204;28;20047;-67
2022/12/19 04:49:03;;;;;;;29.65;15.10;;;;;;;4.82;100.00;101506.47;5077361;28;20073;-66
2022/12/19 04:51:28;;;;;;;30.15;14.88;;;;;;;4.90;100.00;101507.69;5095522;28;20097;-66
2022/12/19 04:53:54;;;;;;;31.40;16.00;;;;;;;4.97;100.00;101511.50;5095449;28;20020;-67
2022/12/19 04:56:19;;;;;;;28.23;13.15;;;;;;;5.00;100.00;101506.38;5095328;28;20026;-67
2022/12/19 04:58:44;;;;;;;25.63;12.63;;;;;;;5.03;100.00;101509.13;5095452;28;20497;-66
2022/12/19 05:01:12;;;;;;;28.33;15.13;;;;;;;5.10;100.00;101513.81;5095299;28;20032;-67
2022/12/19 05:03:38;;;;;;;27.75;13.32;;;;;;;5.11;100.00;101510.38;5076967;28;20081;-67
2022/12/19 05:06:10;;;;;;;26.40;12.85;;;;;;;5.12;100.00;101498.16;5077329;28;20032;-66
2022/12/19 05:08:37;;;;;;;25.00;12.97;;;;;;;5.16;100.00;101503.59;5095249;28;20424;-67
2022/12/19 05:11:04;;;;;;;22.05;11.05;;;;;;;5.22;100.00;101506.50;5077255;28;20632;-67
2022/12/19 05:13:30;;;;;;;22.00;11.25;;;;;;;5.25;100.00;101503.97;5076974;28;20035;-67
2022/12/19 05:15:57;;;;;;;21.80;11.75;;;;;;;5.24;100.00;101503.94;5095006;28;20216;-67
2022/12/19 05:18:23;;;;;;;20.40;11.75;;;;;;;5.32;100.00;101506.88;5095259;28;20028;-67
2022/12/19 05:20:48;;;;;;;23.52;15.82;;;;;;;5.35;100.00;101502.66;5094968;28;20470;-66
2022/12/19 05:23:13;;;;;;;22.63;11.93;;;;;;;5.42;100.00;101498.56;5094945;28;20115;-66
2022/12/19 05:25:39;;;;;;;22.45;11.50;;;;;;;5.42;100.00;101488.09;5094584;28;20358;-67
2022/12/19 05:28:04;;;;;;;20.42;12.55;;;;;;;5.44;100.00;101491.69;5059904;28;20020;-67
2022/12/19 05:30:30;;;;;;;22.73;12.80;;;;;;;5.48;100.00;101481.38;5094901;28;20020;-66
2022/12/19 05:32:55;;;;;;;19.92;11.50;;;;;;;5.52;100.00;101485.94;5094589;28;20036;-67
2022/12/19 05:35:21;;;;;;;21.23;11.65;;;;;;;5.59;100.00;101512.38;5094438;28;20031;-66
2022/12/19 05:37:46;;;;;;;20.08;11.43;;;;;;;5.60;100.00;101495.81;5094498;28;20032;-66
2022/12/19 05:40:13;;;;;;;15.48;10.40;;;;;;;5.65;100.00;101489.03;5076284;28;20051;-67
2022/12/19 05:42:38;;;;;;;17.60;10.20;;;;;;;5.65;100.00;101479.47;5094481;28;20066;-67
2022/12/19 05:45:04;;;;;;;20.90;11.93;;;;;;;5.72;100.00;101480.59;5076228;28;20051;-69
2022/12/19 05:47:29;;;;;;;19.58;10.23;;;;;;;5.72;100.00;101477.97;5094421;28;20460;-67
2022/12/19 05:49:54;;;;;;;15.35;9.25;;;;;;;5.76;100.00;101488.63;5094240;28;20569;-67
2022/12/19 05:52:20;;;;;;;19.77;10.77;;;;;;;5.81;100.00;101482.69;5076026;28;20031;-67
2022/12/19 05:54:45;;;;;;;16.23;9.73;;;;;;;5.84;100.00;101482.81;5075872;28;20047;-66
2022/12/19 05:57:11;;;;;;;16.80;9.48;;;;;;;5.89;100.00;101489.13;5093867;28;20024;-67
2022/12/19 05:59:36;;;;;;;15.20;9.63;;;;;;;5.93;100.00;101491.97;5075969;28;20028;-67
2022/12/19 06:02:01;;;;;;;19.52;9.60;;;;;;;5.97;100.00;101488.63;5094123;28;20040;-66
2022/12/19 06:04:28;;;;;;;17.35;10.00;;;;;;;5.98;100.00;101485.19;5093853;28;20027;-66
2022/12/19 06:06:54;;;;;;;13.80;8.57;;;;;;;6.01;100.00;101487.94;5094222;28;20404;-67
2022/12/19 06:09:19;;;;;;;17.60;9.45;;;;;;;6.04;100.00;101487.16;5093829;28;20477;-66
2022/12/19 06:11:44;;;;;;;14.73;8.73;;;;;;;6.11;100.00;101481.31;5075742;28;20084;-67
2022/12/19 06:14:10;;;;;;;13.48;8.57;;;;;;;6.12;100.00;101477.84;5075827;28;20035;-66
2022/12/19 06:16:35;;;;;;;15.65;8.50;;;;;;;6.11;100.00;101483.94;5059042;28;20107;-67
2022/12/19 06:19:00;;;;;;;16.95;8.63;;;;;;;6.17;100.00;101486.81;5093890;28;20025;-66
2022/12/19 06:21:26;;;;;;;15.25;8.85;;;;;;;6.20;100.00;101479.03;5093741;28;20055;-66
2022/12/19 06:23:53;;;;;;;13.75;8.57;;;;;;;6.20;100.00;101488.63;5093578;28;20118;-67
2022/12/19 06:26:20;;;;;;;14.77;8.25;;;;;;;6.24;100.00;101482.69;5058824;28;20554;-65
2022/12/19 06:28:47;;;;;;;12.05;7.40;;;;;;;6.28;100.00;101482.84;5093623;28;20024;-66
2022/12/19 06:31:13;;;;;;;14.00;8.43;;;;;;;6.27;100.00;101481.06;5093790;28;20024;-67
2022/12/19 06:33:38;;;;;;;13.88;8.63;;;;;;;6.33;100.00;101477.78;5093422;28;20016;-66
2022/12/19 06:36:12;;;;;;;13.85;8.77;;;;;;;6.34;100.00;101491.78;5075390;28;20369;-66
2022/12/19 06:38:37;;;;;;;12.57;8.77;;;;;;;6.37;100.00;101487.56;5093424;28;20020;-67
2022/12/19 06:43:47;;;;;;;13.38;7.88;;;;;;;6.43;100.00;101487.81;5093501;28;20071;-67
2022/12/19 06:46:12;;;;;;;10.50;7.47;;;;;;;6.46;100.00;101502.75;5093429;28;20028;-67
2022/12/19 06:48:38;;;;;;;14.60;8.35;;;;;;;6.48;100.00;101491.50;5093345;28;20047;-66
2022/12/19 06:51:03;;;;;;;12.27;7.65;;;;;;;6.53;100.00;101510.94;5093122;28;20103;-66
2022/12/19 06:53:29;;;;;;;12.55;7.57;;;;;;;6.52;100.00;101524.00;5093095;28;20024;-66
2022/12/19 06:55:56;;;;;;;10.90;7.30;;;;;;;6.51;100.00;101494.25;5093343;28;20099;-66
2022/12/19 06:58:22;;;;;;;17.25;8.80;;;;;;;6.56;100.00;101509.28;5093163;28;20054;-66
2022/12/19 07:00:48;;;;;;;11.93;7.82;;;;;;;6.60;100.00;101505.94;5093244;28;20146;-66
2022/12/19 07:03:18;;;;;;;12.45;7.60;;;;;;;6.59;100.00;101490.97;5075113;28;20385;-67
2022/12/19 07:05:43;;;;;;;12.82;7.47;;;;;;;6.60;100.00;101501.56;5092870;28;20046;-67
2022/12/19 07:08:09;;;;;;;15.05;8.32;;;;;;;6.64;100.00;101505.22;5092462;28;20024;-67
2022/12/19 07:10:35;;;;;;;12.27;7.90;;;;;;;6.63;100.00;101500.75;5093254;28;20488;-67
2022/12/19 07:13:00;;;;;;;10.98;7.85;;;;;;;6.63;100.00;101512.16;5074871;28;20469;-67
2022/12/19 07:15:26;;;;;;;11.73;7.90;;;;;;;6.68;100.00;101507.06;5092962;28;20028;-67
2022/12/19 07:17:52;;;;;;;13.05;7.70;;;;;;;6.67;100.00;101497.41;5093037;28;20154;-66
2022/12/19 07:20:19;;;;;;;11.60;7.30;;;;;;;6.68;100.00;101496.56;5092765;28;20115;-67
2022/12/19 07:22:46;;;;;;;12.65;7.22;;;;;;;6.66;100.00;101496.53;5092959;28;20028;-67
2022/12/19 07:25:11;;;;;;;13.05;7.97;;;;;;;6.70;100.00;101508.03;5074668;28;20025;-67
2022/12/19 07:27:37;;;;;;;10.52;7.45;;;;;;;6.70;100.00;101510.66;5092976;28;20047;-67
2022/12/19 07:30:04;;;;;;;10.75;7.35;;;;;;;6.72;100.00;101501.09;5092821;28;20031;-67
2022/12/19 07:32:29;;;;;;;11.57;7.50;;;;;;;6.72;100.00;101499.41;5092622;28;20115;-66
2022/12/19 07:34:55;;;;;;;13.43;8.00;;;;;;;6.72;100.00;101498.47;5092447;28;20086;-67
2022/12/19 07:37:20;;;;;;;10.75;7.38;;;;;;;6.74;100.00;101505.59;5092699;28;20028;-67
2022/12/19 07:39:47;;;;;;;10.88;6.85;;;;;;;6.75;100.00;101515.25;5092675;28;20109;-67
2022/12/19 07:42:13;;;;;;;10.75;6.45;;;;;;;6.74;100.00;101499.44;5092682;28;20028;-67
2022/12/19 07:44:38;;;;;;;10.98;7.53;;;;;;;6.75;100.00;101511.72;5092323;28;20058;-67
2022/12/19 07:47:04;;;;;;;10.82;7.68;;;;;;;6.77;100.00;101517.94;5092802;28;20038;-67
2022/12/19 07:49:29;;;;;;;14.13;7.65;;;;;;;6.72;100.00;101509.91;5092377;28;20152;-66
2022/12/19 07:51:54;;;;;;;12.05;7.07;;;;;;;6.80;100.00;101511.91;5092692;28;20085;-66
2022/12/19 07:54:20;;;;;;;9.75;5.78;;;;;;;6.86;100.00;101530.53;5092572;28;20499;-66
2022/12/19 07:56:45;;;;;;;10.15;6.32;;;;;;;6.89;100.00;101522.72;5092543;28;20074;-67
2022/12/19 07:59:11;;;;;;;10.05;6.60;;;;;;;6.88;100.00;101524.47;5074536;28;20024;-67
2022/12/19 08:01:37;;;;;;;9.93;6.35;;;;;;;6.91;100.00;101515.81;5092835;28;20081;-67
2022/12/19 08:04:03;;;;;;;11.63;7.00;;;;;;;6.91;100.00;101529.84;5092116;28;20466;-67
2022/12/19 08:06:28;;;;;;;10.52;6.68;;;;;;;6.92;100.00;101521.13;5092422;28;20025;-67
2022/12/19 08:08:53;;;;;;;9.45;6.88;;;;;;;7.01;100.00;101539.84;5092592;28;20082;-68
2022/12/19 08:11:26;;;;;;;10.15;6.30;;;;;;;7.00;100.00;101540.69;5092350;28;20024;-67
2022/12/19 08:13:51;;;;;;;;;;;;;;;6.99;100.00;101527.50;5092858;28;20059;-67
2022/12/19 08:16:16;;;;;;;11.57;6.30;;;;;;;6.99;100.00;101533.66;5092360;28;19943;-67
2022/12/19 08:18:42;;;;;;;9.25;6.43;;;;;;;7.03;100.00;101534.66;5092091;28;20546;-67
2022/12/19 08:21:08;;;;;;;9.02;6.30;;;;;;;7.03;100.00;101537.28;5077037;28;20027;-67
2022/12/19 08:23:34;;;;;;;10.07;6.70;;;;;;;7.05;100.00;101532.97;5095973;28;20031;-66
2022/12/19 08:26:01;;;;;;;9.98;7.07;;;;;;;7.09;100.00;101526.97;5096027;28;20024;-67
2022/12/19 08:28:26;;;;;;;8.43;6.43;;;;;;;7.17;100.00;101533.41;5095947;28;20028;-68
2022/12/19 08:30:52;;;;;;;9.02;6.53;;;;;;;7.20;100.00;101524.75;5096148;28;20090;-67
2022/12/19 08:33:17;;;;;;;11.70;6.95;;;;;;;7.24;100.00;101534.53;5077265;28;20036;-67
2022/12/19 08:35:43;;;;;;;11.57;5.70;;;;;;;7.21;100.00;101514.28;5095750;28;20028;-66
2022/12/19 08:38:08;;;;;;;10.90;6.28;;;;;;;7.20;100.00;101524.75;5095837;28;20024;-67
2022/12/19 08:40:34;;;;;;;10.73;6.15;;;;;;;7.22;100.00;101530.94;5077811;28;20162;-67
2022/12/19 08:42:59;;;;;;;8.57;6.07;;;;;;;7.25;100.00;101545.09;5095740;28;20455;-66
2022/12/19 08:45:25;;;;;;;9.30;5.78;;;;;;;7.33;100.00;101549.72;5095790;28;20039;-67
2022/12/19 08:47:50;;;;;;;11.77;6.00;;;;;;;7.35;100.00;101538.41;5095593;28;20089;-66
2022/12/19 08:50:16;;;;;;;9.20;6.07;;;;;;;7.29;100.00;101527.69;5095468;28;20070;-67
2022/12/19 08:52:41;;;;;;;9.90;5.88;;;;;;;7.38;100.00;101535.00;5095882;28;20523;-67
2022/12/19 08:55:07;;;;;;;10.10;6.10;;;;;;;7.39;100.00;101535.06;5095625;28;20036;-66
2022/12/19 08:57:32;;;;;;;8.20;6.05;;;;;;;7.44;100.00;101529.94;5060708;28;20123;-67
2022/12/19 08:59:57;;;;;;;9.82;5.80;;;;;;;7.51;100.00;101539.84;5077241;28;20024;-67
2022/12/19 09:02:23;;;;;;;8.93;5.82;;;;;;;7.51;100.00;101538.09;5095218;28;20489;-67
2022/12/19 09:04:48;;;;;;;10.10;6.22;;;;;;;7.53;100.00;101544.28;5095140;28;20438;-67
2022/12/19 09:07:14;;;;;;;9.75;5.22;;;;;;;7.54;100.00;101537.34;5095384;28;20540;-67
2022/12/19 09:09:39;;;;;;;9.88;6.20;;;;;;;7.58;100.00;101544.47;5077239;28;20487;-67
2022/12/19 09:12:05;;;;;;;7.75;5.63;;;;;;;7.62;100.00;101545.44;5094978;28;20024;-67
2022/12/19 09:14:34;;;;;;;9.25;5.43;;;;;;;7.63;100.00;101537.63;5076836;28;20032;-67
2022/12/19 09:17:00;;;;;;;8.13;5.47;;;;;;;7.63;100.00;101537.63;5076760;28;20393;-67
2022/12/19 09:19:25;;;;;;;7.53;5.20;;;;;;;7.64;100.00;101542.03;5095280;28;20028;-67
2022/12/19 09:21:51;;;;;;;6.95;5.13;;;;;;;7.67;100.00;101559.69;5077004;28;20034;-67
2022/12/19 09:24:16;;;;;;;10.50;5.70;;;;;;;7.65;100.00;101556.09;5094854;28;20032;-67
2022/12/19 09:26:42;;;;;;;8.30;5.70;;;;;;;7.64;100.00;101555.19;5094877;28;20448;-67
2022/12/19 09:29:08;;;;;;;9.00;5.78;;;;;;;7.65;100.00;101549.09;5076846;28;20599;-67
2022/12/19 09:31:34;;;;;;;9.30;5.78;;;;;;;7.66;100.00;101548.25;5075903;28;20111;-67
2022/12/19 09:33:59;;;;;;;8.48;5.45;;;;;;;7.68;100.00;101564.09;5094618;28;20158;-67
2022/12/19 09:36:24;;;;;;;8.68;5.38;;;;;;;7.66;100.00;101558.75;5094736;28;20020;-66
2022/12/19 09:38:54;;;;;;;8.43;5.28;;;;;;;7.73;100.00;101568.66;5094639;28;20028;-67
2022/12/19 09:41:38;;;;;;;11.45;5.90;;;;;;;7.72;100.00;101556.34;5094624;28;20024;-67
2022/12/19 09:44:31;;;;;;;9.38;5.70;;;;;;;7.77;100.00;101545.97;5094347;28;20056;-67
2022/12/19 09:47:02;;;;;;;9.90;5.70;;;;;;;7.74;100.00;101545.88;5094529;28;20031;-68
2022/12/19 09:49:37;;;;;;;8.80;5.25;;;;;;;7.75;100.00;101560.81;5094492;28;20504;-67
2022/12/19 09:52:05;;;;;;;10.35;5.50;;;;;;;7.77;100.00;101540.72;5094098;28;20027;-67
2022/12/19 09:54:37;;;;;;;8.45;5.55;;;;;;;7.80;100.00;101548.72;5094217;28;20023;-67
2022/12/19 09:57:12;;;;;;;10.02;5.82;;;;;;;7.85;100.00;101555.03;5094343;28;20024;-67
2022/12/19 09:59:46;;;;;;;7.53;5.70;;;;;;;7.90;100.00;101535.00;5094021;28;20458;-66
2022/12/19 10:02:35;;;;;;;9.70;5.40;;;;;;;7.93;100.00;101548.28;5094878;28;20127;-66
2022/12/19 10:05:37;;;;;;;10.27;5.80;;;;;;;8.02;100.00;101571.38;5093730;28;20053;-68
2022/12/19 10:08:16;;;;;;;8.60;5.32;;;;;;;8.08;100.00;101574.19;5076263;28;20095;-66
2022/12/19 10:11:00;;;;;;;9.40;5.90;;;;;;;8.11;100.00;101571.66;5094188;28;20039;-66
2022/12/19 10:13:34;;;;;;;9.32;5.20;;;;;;;8.11;100.00;101571.66;5093980;28;20499;-67
2022/12/19 10:16:03;;;;;;;8.20;5.03;;;;;;;8.13;100.00;101574.34;5094000;28;20032;-68
2022/12/19 10:18:51;;;;;;;7.22;4.50;;;;;;;8.12;100.00;101557.66;5093986;28;20024;-67
2022/12/19 10:21:32;;;;;;;6.28;4.78;;;;;;;8.18;100.00;101546.41;5093831;28;20123;-65
2022/12/19 10:24:17;;;;;;;8.00;4.43;;;;;;;8.19;100.00;101548.22;5093819;28;20377;-66
2022/12/19 10:26:56;;;;;;;8.20;5.38;;;;;;;8.23;100.00;101550.13;5093813;28;20038;-67
2022/12/19 10:29:36;;;;;;;7.90;5.07;;;;;;;8.24;99.06;101551.91;5075563;28;20529;-67
2022/12/19 10:32:15;;;;;;;6.80;4.40;;;;;;;8.28;99.25;101543.25;5075359;28;20026;-67
2022/12/19 10:34:44;;;;;;;8.35;5.03;;;;;;;8.33;98.79;101567.09;5093391;28;20028;-66
2022/12/19 10:37:17;;;;;;;9.13;5.28;;;;;;;8.32;98.73;101576.72;5093456;28;20422;-67
2022/12/19 10:39:53;;;;;;;7.85;4.82;;;;;;;8.32;98.90;101560.94;5093658;28;20481;-67
2022/12/19 10:42:44;;;;;;;9.73;5.20;;;;;;;8.31;100.00;101560.88;5093476;28;20027;-67
2022/12/19 10:45:20;;;;;;;8.35;5.05;;;;;;;8.27;99.49;101557.25;5036948;28;20045;-67
2022/12/19 10:47:48;;;;;;;9.50;5.18;;;;;;;8.29;99.45;101564.34;5073462;28;20031;-67
2022/12/19 10:50:23;;;;;;;8.52;4.82;;;;;;;8.31;100.00;101551.25;5073034;28;20056;-67
2022/12/19 10:53:06;;;;;;;6.53;4.47;;;;;;;8.33;100.00;101556.56;5054885;28;20108;-68
2022/12/19 10:55:49;;;;;;;9.05;5.20;;;;;;;8.31;100.00;101560.88;5073130;28;20020;-67
2022/12/19 10:58:22;;;;;;;9.73;4.68;;;;;;;8.32;100.00;101567.94;5073071;28;20016;-68
2022/12/19 11:01:09;;;;;;;8.25;5.43;;;;;;;8.31;100.00;101558.22;5055031;28;20450;-67
2022/12/19 11:03:35;;;;;;;7.10;5.03;;;;;;;8.31;100.00;101558.22;5072517;28;20025;-67
2022/12/19 11:06:02;;;;;;;7.07;5.03;;;;;;;8.29;100.00;101561.72;5072880;28;20070;-67
2022/12/19 11:08:30;;;;;;;7.25;5.30;;;;;;;8.26;100.00;101566.91;5072643;28;20478;-67
2022/12/19 11:11:10;;;;;;;9.93;5.32;;;;;;;8.24;100.00;101536.09;5072838;28;20020;-67
2022/12/19 11:13:35;;;;;;;7.93;5.78;;;;;;;8.21;100.00;101547.41;5072681;28;20033;-67
2022/12/19 11:16:04;;;;;;;6.97;5.15;;;;;;;8.20;100.00;101545.63;5072683;28;20393;-67
2022/12/19 11:18:48;;;;;;;8.25;5.55;;;;;;;8.17;100.00;101540.25;5072608;28;20028;-67
2022/12/19 11:21:16;;;;;;;7.68;5.22;;;;;;;8.17;100.00;101520.94;5072959;28;20048;-67
2022/12/19 11:23:55;;;;;;;9.13;5.82;;;;;;;8.15;100.00;101518.28;5054672;28;20056;-67
2022/12/19 11:26:39;;;;;;;10.73;5.65;;;;;;;8.17;100.00;101523.56;5072581;28;20060;-67
2022/12/19 11:29:23;;;;;;;9.57;5.30;;;;;;;8.21;100.00;101523.72;5072505;28;20035;-67